Time;durP1;ratioP1;P1;durP2;ratioP2;P2;SDS_P1;SDS_P2;PMS_P1;PMS_P2;Temp;Humidity;BMP_temperature;BMP_pressure;BME280_temperature;BME280_humidity;BME280_pressure;Samples;Min_cycle;Max_cycle;Signal;HPM_P1;HPM_P2
2022/08/22 00:01:45;;;;;;;10.55;4.60;;;;;;;16.31;100.00;101569.34;5205149;28;20026;-74
2022/08/22 00:04:41;;;;;;;13.65;4.40;;;;;;;16.25;100.00;101570.06;5191776;28;20024;-74
2022/08/22 00:07:38;;;;;;;17.67;5.78;;;;;;;16.16;100.00;101573.88;5204924;28;20097;-75
2022/08/22 00:10:17;;;;;;;10.57;4.95;;;;;;;16.13;100.00;101581.56;5202905;28;20029;-75
2022/08/22 00:13:09;;;;;;;13.57;5.10;;;;;;;16.12;100.00;101572.59;5204798;28;20390;-75
2022/08/22 00:15:47;;;;;;;9.30;4.63;;;;;;;16.15;100.00;101583.03;5203349;28;20056;-76
2022/08/22 00:18:41;;;;;;;13.32;5.10;;;;;;;16.20;100.00;101564.38;5204470;28;20498;-75
2022/08/22 00:21:43;;;;;;;6.43;4.25;;;;;;;16.23;100.00;101566.72;5204640;28;20087;-76
2022/08/22 00:24:28;;;;;;;14.80;4.95;;;;;;;16.26;100.00;101570.91;5204107;28;20503;-76
2022/08/22 00:27:06;;;;;;;11.33;5.00;;;;;;;16.27;100.00;101576.16;5204642;28;20041;-75
2022/08/22 00:29:43;;;;;;;13.57;4.60;;;;;;;16.27;100.00;101578.03;5193432;28;20059;-75
2022/08/22 00:32:17;;;;;;;20.02;5.20;;;;;;;16.26;100.00;101574.47;5204938;28;20471;-75
2022/08/22 00:34:51;;;;;;;11.15;4.65;;;;;;;16.23;100.00;101566.72;5203727;28;20147;-75
2022/08/22 00:37:29;;;;;;;14.75;4.60;;;;;;;16.19;100.00;101573.53;5203992;28;20033;-75
2022/08/22 00:40:26;;;;;;;16.52;4.95;;;;;;;16.14;100.00;101567.00;5203873;28;20044;-75
2022/08/22 00:43:21;;;;;;;12.43;5.18;;;;;;;16.07;100.00;101577.72;5204554;28;20460;-75
2022/08/22 00:46:20;;;;;;;14.55;5.45;;;;;;;16.01;100.00;101573.91;5203297;28;20029;-75
2022/08/22 00:49:10;;;;;;;11.10;5.28;;;;;;;15.93;100.00;101582.09;5203755;28;20060;-75
2022/08/22 00:52:10;;;;;;;11.10;4.82;;;;;;;15.90;100.00;101576.19;5203827;28;20029;-75
2022/08/22 00:55:02;;;;;;;11.57;4.65;;;;;;;15.87;100.00;101579.28;5192283;28;20033;-75
2022/08/22 00:58:22;;;;;;;12.45;4.70;;;;;;;15.84;100.00;101579.63;5203934;28;20052;-74
2022/08/22 01:00:58;;;;;;;14.32;5.80;;;;;;;15.77;100.00;101571.44;5204146;28;20434;-73
2022/08/22 01:03:45;;;;;;;17.10;6.05;;;;;;;15.70;100.00;101565.88;5204258;28;20027;-73
2022/08/22 01:06:53;;;;;;;10.68;5.60;;;;;;;15.64;100.00;101572.03;5203618;28;20033;-73
2022/08/22 01:09:45;;;;;;;9.52;5.13;;;;;;;15.60;100.00;101575.25;5192985;28;20032;-73
2022/08/22 01:12:35;;;;;;;10.68;5.80;;;;;;;15.52;100.00;101568.88;5204020;28;20025;-73
2022/08/22 01:15:09;;;;;;;18.85;6.15;;;;;;;15.45;100.00;101576.03;5203483;28;20517;-73
2022/08/22 01:17:53;;;;;;;13.35;6.07;;;;;;;15.37;100.00;101578.81;5203882;28;20383;-73
2022/08/22 01:20:58;;;;;;;13.82;6.70;;;;;;;15.27;100.00;101570.94;5203487;28;20021;-73
2022/08/22 01:24:02;;;;;;;16.17;6.22;;;;;;;15.18;100.00;101571.16;5203663;28;20364;-75
2022/08/22 01:27:08;;;;;;;27.75;7.25;;;;;;;15.10;100.00;101566.63;5203707;28;20273;-75
2022/08/22 01:30:00;;;;;;;19.25;6.88;;;;;;;15.04;100.00;101580.88;5199928;28;20025;-75
2022/08/22 01:32:45;;;;;;;18.50;6.00;;;;;;;14.98;100.00;101579.72;5203890;28;20100;-74
2022/08/22 01:35:34;;;;;;;21.08;6.65;;;;;;;14.94;100.00;101581.09;5202888;28;20100;-75
2022/08/22 01:38:24;;;;;;;11.27;5.82;;;;;;;14.92;100.00;101571.50;5196696;28;20112;-74
2022/08/22 01:41:24;;;;;;;15.32;5.68;;;;;;;14.91;100.00;101577.88;5199383;28;20060;-73
2022/08/22 01:44:31;;;;;;;10.88;5.68;;;;;;;14.89;100.00;101566.44;5189753;28;20030;-74
2022/08/22 01:47:10;;;;;;;11.40;5.30;;;;;;;14.86;100.00;101569.47;5203317;28;20061;-73
2022/08/22 01:49:51;;;;;;;17.88;6.30;;;;;;;14.85;100.00;101568.63;5203740;28;20017;-73
2022/08/22 01:52:43;;;;;;;14.02;6.00;;;;;;;14.81;100.00;101567.34;5202912;28;20029;-74
2022/08/22 01:55:36;;;;;;;14.18;5.45;;;;;;;14.76;100.00;101567.84;5202715;28;20014;-75
2022/08/22 01:58:28;;;;;;;13.75;6.40;;;;;;;14.75;100.00;101566.16;5203164;28;20017;-74
2022/08/22 02:01:30;;;;;;;16.08;6.63;;;;;;;14.76;100.00;101565.16;5203303;28;20025;-74
2022/08/22 02:04:03;;;;;;;10.63;6.05;;;;;;;14.78;100.00;101559.56;5203189;28;20083;-74
2022/08/22 02:06:40;;;;;;;10.77;5.22;;;;;;;14.79;100.00;101557.72;5202614;28;20056;-74
2022/08/22 02:09:28;;;;;;;14.98;6.45;;;;;;;14.80;100.00;101559.38;5189918;28;20026;-75
2022/08/22 02:12:23;;;;;;;18.38;6.45;;;;;;;14.80;100.00;101560.22;5203140;28;20040;-75
2022/08/22 02:15:13;;;;;;;10.43;5.15;;;;;;;14.81;100.00;101552.94;5202609;28;20552;-76
2022/08/22 02:17:59;;;;;;;13.10;5.82;;;;;;;14.83;100.00;101553.63;5202891;28;20112;-76
2022/08/22 02:20:39;;;;;;;20.20;6.70;;;;;;;14.85;100.00;101555.13;5203354;28;20029;-76
2022/08/22 02:23:47;;;;;;;17.17;5.93;;;;;;;14.86;100.00;101548.72;5202874;28;20029;-76
2022/08/22 02:26:20;;;;;;;16.88;5.55;;;;;;;14.88;100.00;101540.44;5202589;28;20026;-73
2022/08/22 02:28:58;;;;;;;11.65;5.50;;;;;;;14.92;100.00;101544.47;5198219;28;20025;-75
2022/08/22 02:31:55;;;;;;;15.45;6.07;;;;;;;14.95;100.00;101541.41;5203049;28;20021;-74
2022/08/22 02:35:03;;;;;;;13.57;5.60;;;;;;;14.99;100.00;101540.88;5202055;28;20530;-75
2022/08/22 02:37:46;;;;;;;17.80;6.57;;;;;;;14.99;100.00;101537.31;5202597;28;20433;-74
2022/08/22 02:40:51;;;;;;;13.75;6.22;;;;;;;14.94;100.00;101543.25;5202350;28;20544;-74
2022/08/22 02:43:33;;;;;;;15.97;5.47;;;;;;;14.86;100.00;101543.31;5202953;28;20048;-75
2022/08/22 02:46:21;;;;;;;19.73;6.22;;;;;;;14.84;100.00;101544.50;5204430;28;20025;-74
2022/08/22 02:49:29;;;;;;;13.73;5.65;;;;;;;14.84;100.00;101541.81;5206638;28;20026;-74
2022/08/22 02:52:20;;;;;;;10.48;4.97;;;;;;;14.83;100.00;101540.13;5205241;28;20495;-73
2022/08/22 02:54:59;;;;;;;14.32;5.93;;;;;;;14.84;100.00;101539.94;5205754;28;20470;-75
2022/08/22 02:57:51;;;;;;;13.40;5.70;;;;;;;14.87;100.00;101541.47;5206479;28;20029;-74
2022/08/22 03:00:21;;;;;;;15.52;6.63;;;;;;;14.91;100.00;101545.47;5206080;28;20033;-73
2022/08/22 03:03:30;;;;;;;18.83;6.60;;;;;;;14.91;100.00;101538.22;5206970;28;20044;-74
2022/08/22 03:06:05;;;;;;;15.23;6.35;;;;;;;14.93;100.00;101540.75;5194743;28;20076;-74
2022/08/22 03:09:10;;;;;;;19.27;6.57;;;;;;;14.94;100.00;101537.84;5205671;28;20452;-74
2022/08/22 03:11:46;;;;;;;16.20;6.37;;;;;;;14.96;100.00;101534.97;5205780;28;20033;-74
2022/08/22 03:14:42;;;;;;;16.85;6.43;;;;;;;14.94;100.00;101537.84;5204325;28;20025;-75
2022/08/22 03:17:21;;;;;;;17.27;6.25;;;;;;;14.92;100.00;101530.97;5193728;28;20033;-75
2022/08/22 03:20:12;;;;;;;14.60;6.13;;;;;;;14.93;100.00;101530.78;5205470;28;20446;-75
2022/08/22 03:22:52;;;;;;;12.48;5.93;;;;;;;14.96;100.00;101533.13;5206191;28;20120;-75
2022/08/22 03:25:37;;;;;;;11.07;5.72;;;;;;;14.99;100.00;101529.22;5205867;28;20087;-75
2022/08/22 03:28:13;;;;;;;14.98;6.38;;;;;;;15.02;100.00;101535.13;5205382;28;20064;-75
2022/08/22 03:30:56;;;;;;;17.63;6.80;;;;;;;15.05;100.00;101528.50;5205834;28;20475;-75
2022/08/22 03:33:30;;;;;;;20.00;6.60;;;;;;;15.08;100.00;101527.31;5205810;28;20029;-73
2022/08/22 03:36:05;;;;;;;18.85;7.22;;;;;;;15.11;100.00;101530.50;5200328;28;20372;-72
2022/08/22 03:39:03;;;;;;;12.15;7.50;;;;;;;15.15;100.00;101529.09;5205158;28;20104;-74
2022/08/22 03:41:52;;;;;;;14.68;6.50;;;;;;;15.20;100.00;101523.16;5193394;28;20441;-74
2022/08/22 03:45:00;;;;;;;10.73;6.05;;;;;;;15.27;100.00;101516.03;5204852;28;20144;-73
2022/08/22 03:47:56;;;;;;;18.95;7.60;;;;;;;15.28;100.00;101528.53;5205319;28;20446;-73
2022/08/22 03:50:38;;;;;;;15.23;6.75;;;;;;;15.28;100.00;101517.72;5205211;28;20025;-75
2022/08/22 03:53:37;;;;;;;14.82;5.68;;;;;;;15.27;100.00;101516.88;5204789;28;20603;-73
2022/08/22 03:56:08;;;;;;;15.48;5.85;;;;;;;15.27;100.00;101516.88;5192046;28;20510;-73
2022/08/22 03:58:55;;;;;;;14.05;6.32;;;;;;;15.26;100.00;101528.72;5204885;28;20061;-73
2022/08/22 04:02:03;;;;;;;14.60;6.07;;;;;;;15.26;100.00;101522.44;5204731;28;20053;-73
2022/08/22 04:05:13;;;;;;;15.80;6.35;;;;;;;15.25;100.00;101523.47;5204701;28;20053;-73
2022/08/22 04:08:11;;;;;;;18.58;6.25;;;;;;;15.26;100.00;101517.91;5194464;28;20033;-73
2022/08/22 04:11:09;;;;;;;13.10;6.50;;;;;;;15.25;100.00;101520.75;5192189;28;20025;-72
2022/08/22 04:13:53;;;;;;;15.98;6.68;;;;;;;15.26;100.00;101519.72;5204999;28;20104;-75
2022/08/22 04:16:25;;;;;;;20.42;6.68;;;;;;;15.26;100.00;101519.72;5204584;28;20462;-73
2022/08/22 04:19:32;;;;;;;15.82;6.65;;;;;;;15.27;100.00;101527.69;5205081;28;20360;-73
2022/08/22 04:22:27;;;;;;;15.95;6.85;;;;;;;15.28;100.00;101521.25;5192549;28;20029;-74
2022/08/22 04:25:14;;;;;;;20.52;7.53;;;;;;;15.32;100.00;101529.84;5191380;28;20033;-73
2022/08/22 04:28:18;;;;;;;15.85;7.63;;;;;;;15.32;100.00;101524.44;5200194;28;20034;-74
2022/08/22 04:30:56;;;;;;;13.65;6.60;;;;;;;15.31;100.00;101522.72;5204767;28;20152;-74
2022/08/22 04:33:35;;;;;;;21.27;7.78;;;;;;;15.29;100.00;101527.50;5204951;28;20483;-75
2022/08/22 04:36:25;;;;;;;16.00;7.53;;;;;;;15.30;100.00;101529.16;5203706;28;20036;-74
2022/08/22 04:39:03;;;;;;;18.48;8.00;;;;;;;15.31;100.00;101527.31;5203840;28;20022;-74
2022/08/22 04:41:53;;;;;;;15.55;7.38;;;;;;;15.32;100.00;101531.72;5204507;28;20036;-74
2022/08/22 04:44:43;;;;;;;15.30;7.05;;;;;;;15.36;100.00;101530.31;5203871;28;20112;-74
2022/08/22 04:47:50;;;;;;;18.58;8.18;;;;;;;15.37;100.00;101529.31;5204111;28;20037;-74
2022/08/22 04:50:28;;;;;;;17.48;7.72;;;;;;;15.38;100.00;101534.53;5204099;28;20025;-74
2022/08/22 04:53:35;;;;;;;19.80;7.75;;;;;;;15.39;100.00;101529.94;5204029;28;20071;-74
2022/08/22 04:56:10;;;;;;;19.00;8.40;;;;;;;15.38;100.00;101528.28;5190843;28;20025;-75
2022/08/22 04:59:02;;;;;;;15.02;7.53;;;;;;;15.38;100.00;101534.53;5203866;28;20159;-74
2022/08/22 05:01:53;;;;;;;12.10;7.20;;;;;;;15.39;100.00;101529.94;5203946;28;20506;-75
2022/08/22 05:04:44;;;;;;;15.50;7.78;;;;;;;15.39;100.00;101533.50;5203362;28;20021;-73
2022/08/22 05:07:23;;;;;;;16.55;7.20;;;;;;;15.40;100.00;101527.06;5203477;28;20503;-74
2022/08/22 05:09:59;;;;;;;14.30;7.22;;;;;;;15.40;100.00;101537.03;5203409;28;20104;-74
2022/08/22 05:12:35;;;;;;;23.20;7.47;;;;;;;15.40;100.00;101534.34;5203672;28;20383;-74
2022/08/22 05:15:20;;;;;;;18.48;8.13;;;;;;;15.40;100.00;101542.44;5203371;28;20033;-74
2022/08/22 05:17:54;;;;;;;22.23;8.65;;;;;;;15.41;100.00;101545.00;5203913;28;20021;-73
2022/08/22 05:20:27;;;;;;;18.60;7.65;;;;;;;15.46;100.00;101542.59;5190572;28;20021;-73
2022/08/22 05:23:09;;;;;;;19.42;8.63;;;;;;;15.53;100.00;101542.69;5203462;28;20032;-71
2022/08/22 05:25:43;;;;;;;16.17;7.65;;;;;;;15.60;100.00;101540.09;5203177;28;20048;-72
2022/08/22 05:28:21;;;;;;;23.25;8.45;;;;;;;15.66;100.00;101542.94;5203588;28;20029;-72
2022/08/22 05:30:52;;;;;;;25.88;8.98;;;;;;;15.72;100.00;101539.50;5203328;28;20497;-72
2022/08/22 05:33:29;;;;;;;16.08;7.47;;;;;;;15.79;100.00;101543.16;5203237;28;20387;-74
2022/08/22 05:36:05;;;;;;;17.88;8.20;;;;;;;15.83;100.00;101546.34;5202822;28;20044;-73
2022/08/22 05:38:42;;;;;;;17.95;7.45;;;;;;;15.89;100.00;101553.72;5203632;28;20491;-74
2022/08/22 05:41:34;;;;;;;16.27;7.53;;;;;;;15.96;100.00;101553.81;5203162;28;20053;-74
2022/08/22 05:44:16;;;;;;;15.77;7.30;;;;;;;16.01;100.00;101541.44;5203045;28;20025;-74
2022/08/22 05:47:16;;;;;;;20.67;8.55;;;;;;;16.09;100.00;101542.34;5203546;28;20040;-72
2022/08/22 05:49:48;;;;;;;20.10;8.23;;;;;;;16.17;100.00;101545.81;5191480;28;20029;-74
2022/08/22 05:52:56;;;;;;;20.10;7.88;;;;;;;16.27;100.00;101548.25;5203055;28;20068;-74
2022/08/22 05:55:27;;;;;;;17.45;7.30;;;;;;;16.33;100.00;101546.66;5202666;28;20113;-74
2022/08/22 05:58:16;;;;;;;14.43;6.78;;;;;;;16.35;100.00;101541.88;5202874;28;20100;-72
2022/08/22 06:00:57;;;;;;;18.58;8.52;;;;;;;16.41;100.00;101541.97;5202964;28;20030;-73
2022/08/22 06:04:03;;;;;;;23.20;6.93;;;;;;;16.50;100.00;101546.25;5202865;28;20104;-72
2022/08/22 06:06:53;;;;;;;22.52;9.60;;;;;;;16.58;100.00;101542.63;5202616;28;20026;-72
2022/08/22 06:09:57;;;;;;;15.68;8.00;;;;;;;16.66;100.00;101550.63;5203293;28;20455;-71
2022/08/22 06:12:38;;;;;;;24.48;8.52;;;;;;;16.72;100.00;101541.81;5203206;28;20021;-72
2022/08/22 06:15:27;;;;;;;16.95;7.82;;;;;;;16.81;100.00;101548.75;5202529;28;20021;-71
2022/08/22 06:18:15;;;;;;;21.20;8.35;;;;;;;16.90;100.00;101545.94;5202808;28;20398;-71
2022/08/22 06:20:52;;;;;;;28.55;7.95;;;;;;;16.97;100.00;101553.16;5206665;28;20084;-71
2022/08/22 06:23:31;;;;;;;25.55;8.10;;;;;;;17.03;100.00;101546.13;5206938;28;20368;-72
2022/08/22 06:26:04;;;;;;;21.23;8.00;;;;;;;17.07;100.00;101548.25;5206469;28;20017;-72
2022/08/22 06:28:40;;;;;;;21.23;8.55;;;;;;;17.11;100.00;101547.84;5202318;28;20021;-72
2022/08/22 06:31:31;;;;;;;23.60;9.05;;;;;;;17.13;100.00;101549.34;5206945;28;20499;-73
2022/08/22 06:34:24;;;;;;;19.73;8.23;;;;;;;17.16;100.00;101546.22;5206119;28;20112;-71
2022/08/22 06:36:57;;;;;;;20.48;8.70;;;;;;;17.20;100.00;101552.97;5196251;28;20072;-71
2022/08/22 06:39:31;;;;;;;25.42;10.13;;;;;;;17.22;100.00;101550.03;5206432;28;20022;-72
2022/08/22 06:42:21;;;;;;;32.00;11.55;;;;;;;17.22;100.00;101552.75;5206394;28;20357;-71
2022/08/22 06:44:59;;;;;;;23.95;11.27;;;;;;;17.22;100.00;101553.63;5206140;28;20075;-72
2022/08/22 06:47:38;;;;;;;21.92;10.93;;;;;;;17.24;100.00;101564.28;5206429;28;20029;-72
2022/08/22 06:50:13;;;;;;;20.65;11.13;;;;;;;17.25;100.00;101561.34;5206136;28;20033;-71
2022/08/22 06:53:21;;;;;;;23.30;11.00;;;;;;;17.25;100.00;101566.78;5205100;28;20031;-73
2022/08/22 06:55:55;;;;;;;31.60;11.48;;;;;;;17.27;100.00;101566.56;5205970;28;20164;-72
2022/08/22 06:58:43;;;;;;;26.55;11.73;;;;;;;17.30;100.00;101563.50;5206196;28;20060;-72
2022/08/22 07:01:45;;;;;;;26.83;11.55;;;;;;;17.35;100.00;101561.88;5191963;28;20121;-71
2022/08/22 07:04:16;;;;;;;26.67;12.55;;;;;;;17.42;100.00;101566.50;5201341;28;20487;-72
2022/08/22 07:06:50;;;;;;;32.13;11.48;;;;;;;17.46;100.00;101565.94;5204125;28;20410;-72
2022/08/22 07:09:40;;;;;;;26.70;11.50;;;;;;;17.54;100.00;101562.28;5204038;28;20137;-72
2022/08/22 07:12:18;;;;;;;29.55;11.45;;;;;;;17.60;100.00;101556.88;5203943;28;20426;-72
2022/08/22 07:14:51;;;;;;;27.25;10.65;;;;;;;17.66;100.00;101555.25;5203393;28;20045;-70
2022/08/22 07:17:25;;;;;;;27.30;11.05;;;;;;;17.72;100.00;101553.63;5203313;28;20226;-70
2022/08/22 07:20:20;;;;;;;32.17;10.77;;;;;;;17.81;100.00;101549.78;5203791;28;20026;-70
2022/08/22 07:22:57;;;;;;;28.48;11.15;;;;;;;17.89;100.00;101551.53;5203723;28;20033;-70
2022/08/22 07:25:29;;;;;;;26.13;10.98;;;;;;;17.99;100.00;101560.16;5190652;28;20102;-70
2022/08/22 07:28:06;;;;;;;21.95;10.68;;;;;;;18.05;100.00;101551.22;5199176;28;20052;-70
2022/08/22 07:30:57;;;;;;;29.65;10.30;;;;;;;18.14;100.00;101562.78;5202619;28;20445;-70
2022/08/22 07:33:47;;;;;;;30.10;10.23;;;;;;;18.20;100.00;101565.53;5190549;28;20321;-70
2022/08/22 07:36:23;;;;;;;31.08;10.88;;;;;;;18.25;100.00;101559.50;5189799;28;20124;-70
2022/08/22 07:39:29;;;;;;;33.60;10.88;;;;;;;18.29;100.00;101560.78;5203603;28;20102;-71
2022/08/22 07:42:03;;;;;;;29.17;11.30;;;;;;;18.30;100.00;101555.13;5195135;28;20479;-70
2022/08/22 07:44:50;;;;;;;23.70;11.52;;;;;;;18.29;100.00;101561.63;5202499;28;20033;-71
2022/08/22 07:47:23;;;;;;;24.92;11.73;;;;;;;18.29;100.00;101558.91;5201944;28;20045;-71
2022/08/22 07:49:58;;;;;;;24.30;11.68;;;;;;;18.31;100.00;101555.97;5203028;28;20021;-71
2022/08/22 07:52:40;;;;;;;21.63;9.57;;;;;;;18.35;100.00;101555.38;5202925;28;20102;-71
2022/08/22 07:55:27;;;;;;;24.55;11.85;;;;;;;18.41;100.00;101558.34;5202216;28;20096;-71
2022/08/22 07:58:02;;;;;;;25.80;12.05;;;;;;;18.46;100.00;101556.69;5203393;28;20052;-71
2022/08/22 08:00:40;;;;;;;32.78;10.77;;;;;;;18.55;100.00;101550.06;5201313;28;20057;-71
2022/08/22 08:03:11;;;;;;;30.75;10.43;;;;;;;18.60;100.00;101547.56;5202297;28;20029;-71
2022/08/22 08:05:43;;;;;;;23.35;10.80;;;;;;;18.70;100.00;101549.09;5202559;28;20463;-71
2022/08/22 08:08:37;;;;;;;25.63;11.30;;;;;;;18.78;100.00;101554.38;5203157;28;20013;-71
2022/08/22 08:11:11;;;;;;;24.38;10.02;;;;;;;18.88;100.00;101552.94;5202681;28;20030;-71
2022/08/22 08:13:45;;;;;;;22.20;10.45;;;;;;;18.99;100.00;101554.22;5196459;28;20057;-71
2022/08/22 08:16:18;;;;;;;20.08;10.38;;;;;;;19.10;100.00;101555.50;5210685;28;20033;-71
2022/08/22 08:18:53;;;;;;;19.38;9.60;;;;;;;19.21;100.00;101565.78;5202901;28;20124;-71
2022/08/22 08:21:29;;;;;;;24.90;10.70;;;;;;;19.31;100.00;101559.94;5202890;28;20029;-72
2022/08/22 08:24:00;;;;;;;25.70;9.43;;;;;;;19.39;100.00;101565.19;5202320;28;20025;-71
2022/08/22 08:26:37;;;;;;;20.02;8.38;;;;;;;19.46;100.00;101567.94;5202607;28;20033;-71
2022/08/22 08:29:08;;;;;;;22.25;9.15;;;;;;;19.49;100.00;101560.19;5185123;28;20018;-71
2022/08/22 08:31:41;;;;;;;18.75;8.77;;;;;;;19.59;100.00;101560.66;5201999;28;20076;-71
2022/08/22 08:34:20;;;;;;;25.83;9.40;;;;;;;19.75;100.00;101553.94;5201146;28;20052;-71
2022/08/22 08:36:55;;;;;;;20.13;8.70;;;;;;;19.93;100.00;101545.16;5202932;28;20037;-71
2022/08/22 08:39:34;;;;;;;25.67;8.77;;;;;;;20.10;100.00;101545.53;5202071;28;20032;-71
2022/08/22 08:42:25;;;;;;;15.77;7.90;;;;;;;20.24;100.00;101533.56;5202161;28;20037;-71
2022/08/22 08:45:12;;;;;;;20.17;8.52;;;;;;;20.32;100.00;101533.31;5200879;28;20057;-71
2022/08/22 08:48:18;;;;;;;22.52;8.05;;;;;;;20.58;100.00;101531.59;5202256;28;20030;-71
2022/08/22 08:51:15;;;;;;;16.13;7.43;;;;;;;20.92;100.00;101535.84;5201995;28;20033;-71
2022/08/22 08:54:14;;;;;;;15.65;6.80;;;;;;;21.34;100.00;101531.63;5201602;28;20021;-71
2022/08/22 08:57:19;;;;;;;22.33;7.47;;;;;;;21.76;100.00;101528.34;5202733;28;20025;-71
2022/08/22 09:00:01;;;;;;;15.45;7.70;;;;;;;22.17;100.00;101525.03;5192964;28;20522;-71
2022/08/22 09:02:47;;;;;;;16.58;6.95;;;;;;;22.45;100.00;101524.50;5202014;28;20104;-71
2022/08/22 09:05:45;;;;;;;16.65;6.82;;;;;;;22.56;100.00;101528.38;5200833;28;20029;-71
2022/08/22 09:08:43;;;;;;;13.32;6.68;;;;;;;22.65;100.00;101532.47;5201853;28;20037;-71
2022/08/22 09:11:45;;;;;;;19.42;7.00;;;;;;;22.66;100.00;101529.50;5201980;28;20029;-71
2022/08/22 09:14:53;;;;;;;16.45;7.47;;;;;;;22.68;100.00;101521.06;5201119;28;20029;-71
2022/08/22 09:17:54;;;;;;;18.98;6.80;;;;;;;22.85;100.00;101524.84;5200474;28;20395;-71
2022/08/22 09:20:45;;;;;;;16.85;7.38;;;;;;;23.18;100.00;101521.66;5188504;28;20064;-71
2022/08/22 09:23:57;;;;;;;13.32;6.32;;;;;;;23.41;100.00;101520.03;5188163;28;20025;-71
2022/08/22 09:26:48;;;;;;;14.07;5.82;;;;;;;23.92;100.00;101518.56;5200897;28;20021;-72
2022/08/22 09:29:41;;;;;;;18.15;6.00;;;;;;;24.29;100.00;101519.94;5183216;28;20073;-71
2022/08/22 09:32:50;;;;;;;16.40;5.70;;;;;;;24.43;100.00;101514.25;5201505;28;20413;-71
2022/08/22 09:35:40;;;;;;;11.82;5.70;;;;;;;24.45;100.00;101510.19;5200282;28;20116;-72
2022/08/22 09:38:40;;;;;;;18.50;5.75;;;;;;;24.72;100.00;101512.38;5188733;28;20033;-71
2022/08/22 09:41:20;;;;;;;11.45;4.85;;;;;;;24.76;100.00;101519.03;5200866;28;20037;-71
2022/08/22 09:44:14;;;;;;;16.45;4.93;;;;;;;24.84;100.00;101515.88;5199887;28;20028;-72
2022/08/22 09:47:04;;;;;;;10.25;5.70;;;;;;;24.83;100.00;101522.44;5201475;28;20078;-71
2022/08/22 09:49:54;;;;;;;17.55;5.28;;;;;;;24.86;100.00;101515.66;5188687;28;20064;-71
2022/08/22 09:52:58;;;;;;;13.02;5.07;;;;;;;24.72;100.00;101521.44;5187543;28;20024;-71
2022/08/22 09:55:52;;;;;;;13.32;5.32;;;;;;;24.89;100.00;101524.22;5203723;28;20033;-71
2022/08/22 09:58:50;;;;;;;15.40;5.38;;;;;;;24.97;100.00;101518.34;5192547;28;20022;-72
2022/08/22 10:01:55;;;;;;;16.13;5.60;;;;;;;25.03;100.00;101511.84;5196457;28;20034;-71
2022/08/22 10:04:44;;;;;;;12.10;5.18;;;;;;;25.10;100.00;101510.91;5204733;28;20037;-71
2022/08/22 10:07:50;;;;;;;15.80;4.68;;;;;;;25.37;100.00;101506.44;5205288;28;20083;-71
2022/08/22 10:10:41;;;;;;;18.00;5.32;;;;;;;26.20;100.00;101509.38;5191474;28;20045;-72
2022/08/22 10:13:30;;;;;;;9.73;4.07;;;;;;;26.66;100.00;101507.22;5205280;28;20116;-71
2022/08/22 10:16:20;;;;;;;13.60;4.75;;;;;;;26.51;95.93;101497.72;5205059;28;20040;-72
2022/08/22 10:19:07;;;;;;;14.40;3.97;;;;;;;26.34;100.00;101502.41;5192232;28;20028;-72
2022/08/22 10:22:01;;;;;;;11.30;4.85;;;;;;;26.36;100.00;101497.50;5203993;28;20060;-72
2022/08/22 10:25:07;;;;;;;15.35;4.40;;;;;;;26.64;100.00;101498.41;5203269;28;20048;-72
2022/08/22 10:27:39;;;;;;;;;;;;;;;27.08;100.00;101489.00;5205102;28;20021;-73
2022/08/22 10:30:15;;;;;;;17.50;3.95;;;;;;;27.13;94.53;101479.13;5198624;28;19916;-72
2022/08/22 10:33:01;;;;;;;13.82;4.20;;;;;;;27.03;90.88;101480.66;5205213;28;20076;-72
2022/08/22 10:36:09;;;;;;;14.88;4.13;;;;;;;27.04;90.28;101476.81;5209884;28;20056;-72
2022/08/22 10:38:41;;;;;;;9.18;3.60;;;;;;;26.85;84.90;101470.84;5193767;28;20056;-72
2022/08/22 10:41:34;;;;;;;9.10;3.47;;;;;;;26.67;78.05;101468.47;5202709;28;20039;-71
2022/08/22 10:44:42;;;;;;;13.57;3.90;;;;;;;26.29;75.89;101461.09;5204372;28;20510;-73
2022/08/22 10:47:20;;;;;;;9.32;3.65;;;;;;;26.16;76.84;101470.56;5204288;28;20038;-72
2022/08/22 10:49:55;;;;;;;9.00;3.40;;;;;;;26.13;75.40;101470.25;5204302;28;20419;-72
2022/08/22 10:52:30;;;;;;;;;;;;;;;25.89;78.21;101478.72;5205240;28;20454;-73
2022/08/22 10:55:11;;;;;;;13.45;3.40;;;;;;;25.84;80.29;101478.63;5204002;28;19916;-72
2022/08/22 10:58:04;;;;;;;8.50;3.00;;;;;;;26.13;77.34;101481.25;5204125;28;20033;-72
2022/08/22 11:00:53;;;;;;;13.73;3.15;;;;;;;26.50;69.42;101474.03;5203865;28;20083;-72
2022/08/22 11:03:58;;;;;;;16.08;4.25;;;;;;;26.78;71.55;101475.72;5197507;28;20033;-72
2022/08/22 11:06:40;;;;;;;10.07;3.40;;;;;;;26.90;70.48;101478.31;5195785;28;20025;-73
2022/08/22 11:09:28;;;;;;;11.75;3.55;;;;;;;26.77;67.67;101465.00;5205569;28;20315;-73
2022/08/22 11:12:18;;;;;;;10.27;3.10;;;;;;;26.90;68.81;101478.31;5205707;28;20021;-72
2022/08/22 11:15:17;;;;;;;14.07;3.08;;;;;;;26.88;68.65;101477.75;5204820;28;20112;-72
2022/08/22 11:18:25;;;;;;;10.05;3.17;;;;;;;27.20;64.74;101474.22;5205793;28;20402;-73
2022/08/22 11:21:23;;;;;;;8.45;2.65;;;;;;;27.34;63.80;101467.19;5205431;28;20037;-73
2022/08/22 11:23:56;;;;;;;8.65;2.50;;;;;;;27.39;61.66;101471.91;5205495;28;20049;-72
2022/08/22 11:26:49;;;;;;;8.43;2.08;;;;;;;27.56;64.72;101467.06;5204820;28;20033;-73
2022/08/22 11:29:40;;;;;;;11.68;3.38;;;;;;;27.59;64.95;101470.13;5190744;28;20052;-72
2022/08/22 11:32:16;;;;;;;6.22;2.70;;;;;;;27.74;62.38;101460.34;5205289;28;20036;-73
2022/08/22 11:35:03;;;;;;;11.77;3.08;;;;;;;27.18;61.94;101457.16;5204648;28;20030;-72
2022/08/22 11:37:53;;;;;;;8.82;2.78;;;;;;;27.22;62.18;101455.53;5204849;28;20029;-72
2022/08/22 11:40:40;;;;;;;11.82;3.22;;;;;;;27.19;61.25;101447.78;5204585;28;20422;-73
2022/08/22 11:43:37;;;;;;;8.10;1.98;;;;;;;27.02;63.39;101445.97;5192744;28;20061;-73
2022/08/22 11:46:42;;;;;;;7.53;3.22;;;;;;;26.83;64.79;101431.75;5203980;28;20034;-73
2022/08/22 11:49:30;;;;;;;9.75;2.70;;;;;;;27.25;65.41;101436.53;5204667;28;20025;-73
2022/08/22 11:52:38;;;;;;;10.20;2.47;;;;;;;27.80;61.07;101443.56;5205009;28;20111;-73
2022/08/22 11:55:27;;;;;;;7.63;2.70;;;;;;;28.31;57.10;101435.50;5196881;28;20025;-73
2022/08/22 11:58:36;;;;;;;8.38;2.83;;;;;;;28.57;54.34;101432.88;5204596;28;20033;-73
2022/08/22 12:01:39;;;;;;;6.65;2.50;;;;;;;28.77;56.77;101434.84;5204667;28;20037;-73
2022/08/22 12:04:18;;;;;;;12.23;2.67;;;;;;;28.74;55.27;101432.63;5191387;28;20483;-73
2022/08/22 12:06:58;;;;;;;8.57;2.88;;;;;;;28.79;54.31;101433.47;5203949;28;20044;-73
2022/08/22 12:09:40;;;;;;;9.73;2.55;;;;;;;28.69;54.12;101433.44;5203251;28;20358;-72
2022/08/22 12:12:24;;;;;;;6.03;2.38;;;;;;;28.59;54.02;101425.97;5204467;28;20033;-72
2022/08/22 12:15:12;;;;;;;8.50;2.53;;;;;;;28.65;53.59;101430.38;5203900;28;20060;-72
2022/08/22 12:18:08;;;;;;;10.82;2.83;;;;;;;28.70;55.05;101431.50;5204225;28;20116;-73
2022/08/22 12:20:57;;;;;;;6.88;2.50;;;;;;;28.73;53.63;101433.72;5204392;28;20026;-73
2022/08/22 12:24:03;;;;;;;9.55;2.22;;;;;;;28.80;55.93;101412.19;5203639;28;20098;-72
2022/08/22 12:26:52;;;;;;;11.60;2.88;;;;;;;28.76;56.14;101419.38;5203783;28;20038;-72
2022/08/22 12:29:42;;;;;;;10.80;2.50;;;;;;;28.80;55.14;101418.53;5190408;28;20029;-72
2022/08/22 12:32:38;;;;;;;8.15;2.58;;;;;;;28.78;54.97;101412.47;5204108;28;20028;-72
2022/08/22 12:35:27;;;;;;;7.05;2.05;;;;;;;28.80;55.46;101417.72;5196655;28;20029;-73
2022/08/22 12:38:26;;;;;;;5.22;2.17;;;;;;;28.83;56.24;101409.72;5202808;28;20103;-72
2022/08/22 12:41:25;;;;;;;8.50;2.30;;;;;;;29.01;56.91;101400.06;5203963;28;20060;-72
2022/08/22 12:44:15;;;;;;;9.05;2.88;;;;;;;29.08;56.73;101402.59;5204094;28;20021;-73
2022/08/22 12:47:17;;;;;;;14.02;3.30;;;;;;;29.15;55.42;101397.59;5204148;28;20037;-72